sensor_id;sensor_type;location;lat;lon;timestamp;pressure;altitude;pressure_sealevel;temperature;humidity
74230;BME280;62589;12.568;99.958;2024-03-23T00:53:09;100753.16;;;32.76;58.65
74230;BME280;62589;12.568;99.958;2024-03-23T00:55:36;100761.91;;;32.78;59.35
74230;BME280;62589;12.568;99.958;2024-03-23T00:58:03;100763.91;;;32.81;59.43
74230;BME280;62589;12.568;99.958;2024-03-23T01:00:29;100762.72;;;32.82;59.73
74230;BME280;62589;12.568;99.958;2024-03-23T01:02:56;100772.28;;;32.88;59.42
74230;BME280;62589;12.568;99.958;2024-03-23T01:05:22;100766.75;;;32.95;59.38
74230;BME280;62589;12.568;99.958;2024-03-23T01:07:49;100775.53;;;32.97;59.42
74230;BME280;62589;12.568;99.958;2024-03-23T01:10:16;100772.38;;;33.02;58.74
74230;BME280;62589;12.568;99.958;2024-03-23T01:12:42;100772.00;;;33.04;59.07
74230;BME280;62589;12.568;99.958;2024-03-23T01:15:09;100775.56;;;33.04;59.02
74230;BME280;62589;12.568;99.958;2024-03-23T01:17:36;100779.97;;;33.12;58.41
74230;BME280;62589;12.568;99.958;2024-03-23T01:20:02;100787.94;;;33.18;58.32
74230;BME280;62589;12.568;99.958;2024-03-23T01:22:30;100793.94;;;33.23;57.96
74230;BME280;62589;12.568;99.958;2024-03-23T01:24:56;100787.56;;;33.23;58.00
74230;BME280;62589;12.568;99.958;2024-03-23T01:27:23;100792.38;;;33.26;57.27
74230;BME280;62589;12.568;99.958;2024-03-23T01:29:49;100805.13;;;33.34;57.46
74230;BME280;62589;12.568;99.958;2024-03-23T01:32:18;100799.59;;;33.37;57.18
74230;BME280;62589;12.568;99.958;2024-03-23T01:34:45;100804.34;;;33.37;56.58
74230;BME280;62589;12.568;99.958;2024-03-23T01:37:12;100816.31;;;33.41;56.54
74230;BME280;62589;12.568;99.958;2024-03-23T01:39:38;100815.13;;;33.42;56.16
74230;BME280;62589;12.568;99.958;2024-03-23T01:42:05;100816.72;;;33.43;56.10
74230;BME280;62589;12.568;99.958;2024-03-23T01:44:32;100821.88;;;33.48;56.02
74230;BME280;62589;12.568;99.958;2024-03-23T01:46:58;100822.69;;;33.52;56.08
74230;BME280;62589;12.568;99.958;2024-03-23T01:49:25;100831.91;;;33.63;55.75
74230;BME280;62589;12.568;99.958;2024-03-23T01:51:52;100831.13;;;33.63;55.64
74230;BME280;62589;12.568;99.958;2024-03-23T01:54:19;100830.72;;;33.68;54.42
74230;BME280;62589;12.568;99.958;2024-03-23T01:56:46;100836.78;;;33.81;53.97
74230;BME280;62589;12.568;99.958;2024-03-23T01:59:13;100837.59;;;33.85;53.58
74230;BME280;62589;12.568;99.958;2024-03-23T02:01:40;100847.16;;;33.98;54.54
74230;BME280;62589;12.568;99.958;2024-03-23T02:04:07;100848.38;;;34.11;54.76
74230;BME280;62589;12.568;99.958;2024-03-23T02:06:35;100845.59;;;34.18;54.48
74230;BME280;62589;12.568;99.958;2024-03-23T02:09:02;100851.59;;;34.27;53.74
74230;BME280;62589;12.568;99.958;2024-03-23T02:11:29;100858.41;;;34.40;53.34
74230;BME280;62589;12.568;99.958;2024-03-23T02:13:56;100850.84;;;34.48;52.76
74230;BME280;62589;12.568;99.958;2024-03-23T02:16:24;100851.25;;;34.50;50.00
74230;BME280;62589;12.568;99.958;2024-03-23T02:18:50;100847.66;;;34.53;48.49
74230;BME280;62589;12.568;99.958;2024-03-23T02:21:17;100854.81;;;34.43;47.00
74230;BME280;62589;12.568;99.958;2024-03-23T02:23:44;100860.00;;;34.59;47.51
74230;BME280;62589;12.568;99.958;2024-03-23T02:26:10;100869.97;;;34.64;47.61
74230;BME280;62589;12.568;99.958;2024-03-23T02:28:37;100858.00;;;34.74;46.57
74230;BME280;62589;12.568;99.958;2024-03-23T02:31:04;100851.63;;;34.73;45.02
74230;BME280;62589;12.568;99.958;2024-03-23T02:33:30;100854.81;;;34.93;44.14
74230;BME280;62589;12.568;99.958;2024-03-23T02:35:58;100854.81;;;34.93;44.29
74230;BME280;62589;12.568;99.958;2024-03-23T02:38:24;100857.19;;;35.02;44.60
74230;BME280;62589;12.568;99.958;2024-03-23T02:40:51;100861.19;;;35.11;45.38
74230;BME280;62589;12.568;99.958;2024-03-23T02:43:18;100871.16;;;35.02;44.53
74230;BME280;62589;12.568;99.958;2024-03-23T02:45:44;100875.50;;;35.17;44.65
74230;BME280;62589;12.568;99.958;2024-03-23T02:48:11;100873.09;;;35.19;45.03
74230;BME280;62589;12.568;99.958;2024-03-23T02:50:38;100875.50;;;35.21;45.73
74230;BME280;62589;12.568;99.958;2024-03-23T02:53:04;100879.53;;;35.05;44.25
74230;BME280;62589;12.568;99.958;2024-03-23T02:55:31;100875.50;;;35.13;45.07
74230;BME280;62589;12.568;99.958;2024-03-23T02:57:59;100869.13;;;35.31;45.56
74230;BME280;62589;12.568;99.958;2024-03-23T03:00:28;100874.69;;;35.24;44.81
74230;BME280;62589;12.568;99.958;2024-03-23T03:02:55;100871.91;;;35.17;45.95
74230;BME280;62589;12.568;99.958;2024-03-23T03:05:22;100879.88;;;35.36;46.05
74230;BME280;62589;12.568;99.958;2024-03-23T03:07:48;100881.84;;;35.42;46.20
74230;BME280;62589;12.568;99.958;2024-03-23T03:10:15;100873.47;;;35.46;45.39
74230;BME280;62589;12.568;99.958;2024-03-23T03:12:42;100882.66;;;35.39;45.58
74230;BME280;62589;12.568;99.958;2024-03-23T03:15:08;100871.47;;;35.39;45.53
74230;BME280;62589;12.568;99.958;2024-03-23T03:17:35;100875.88;;;35.37;46.52
74230;BME280;62589;12.568;99.958;2024-03-23T03:20:02;100874.66;;;35.48;46.88
74230;BME280;62589;12.568;99.958;2024-03-23T03:22:30;100877.06;;;35.39;45.60
74230;BME280;62589;12.568;99.958;2024-03-23T03:24:57;100867.50;;;35.40;45.81
74230;BME280;62589;12.568;99.958;2024-03-23T03:27:23;100879.06;;;35.35;45.93
74230;BME280;62589;12.568;99.958;2024-03-23T03:29:50;100879.44;;;35.48;46.24
74230;BME280;62589;12.568;99.958;2024-03-23T03:32:17;100869.88;;;35.53;46.69
74230;BME280;62589;12.568;99.958;2024-03-23T03:34:43;100853.91;;;35.53;46.88
74230;BME280;62589;12.568;99.958;2024-03-23T03:37:10;100852.66;;;35.61;46.28
74230;BME280;62589;12.568;99.958;2024-03-23T03:39:37;100861.78;;;35.72;47.85
74230;BME280;62589;12.568;99.958;2024-03-23T03:42:03;100844.34;;;35.47;47.16
74230;BME280;62589;12.568;99.958;2024-03-23T03:44:32;100854.22;;;35.69;48.14
74230;BME280;62589;12.568;99.958;2024-03-23T03:46:59;100860.56;;;35.80;48.26
74230;BME280;62589;12.568;99.958;2024-03-23T03:49:26;100851.38;;;35.84;48.11
74230;BME280;62589;12.568;99.958;2024-03-23T03:51:52;100849.34;;;35.95;48.34
74230;BME280;62589;12.568;99.958;2024-03-23T03:54:19;100839.81;;;35.81;48.01
74230;BME280;62589;12.568;99.958;2024-03-23T03:56:45;100842.09;;;36.01;47.88
74230;BME280;62589;12.568;99.958;2024-03-23T03:59:12;100832.91;;;36.00;48.24
74230;BME280;62589;12.568;99.958;2024-03-23T04:01:39;100827.28;;;36.07;48.82
74230;BME280;62589;12.568;99.958;2024-03-23T04:04:05;100833.25;;;36.13;49.02
74230;BME280;62589;12.568;99.958;2024-03-23T04:06:32;100819.25;;;36.17;48.24
74230;BME280;62589;12.568;99.958;2024-03-23T04:09:02;100822.81;;;36.24;48.52
74230;BME280;62589;12.568;99.958;2024-03-23T04:11:28;100817.16;;;36.31;48.40
74230;BME280;62589;12.568;99.958;2024-03-23T04:13:55;100817.09;;;36.38;48.10
74230;BME280;62589;12.568;99.958;2024-03-23T04:16:28;100821.47;;;36.39;49.06
74230;BME280;62589;12.568;99.958;2024-03-23T04:18:55;100814.69;;;36.40;49.36
74230;BME280;62589;12.568;99.958;2024-03-23T04:21:24;100811.84;;;36.47;49.07
74230;BME280;62589;12.568;99.958;2024-03-23T04:23:51;100807.06;;;36.44;49.45
74230;BME280;62589;12.568;99.958;2024-03-23T04:26:18;100794.72;;;36.38;49.73
74230;BME280;62589;12.568;99.958;2024-03-23T04:28:44;100804.59;;;36.54;49.52
74230;BME280;62589;12.568;99.958;2024-03-23T04:31:11;100793.91;;;36.41;49.24
74230;BME280;62589;12.568;99.958;2024-03-23T04:33:38;100793.59;;;36.32;49.11
74230;BME280;62589;12.568;99.958;2024-03-23T04:36:05;100791.50;;;36.43;48.98
74230;BME280;62589;12.568;99.958;2024-03-23T04:38:33;100794.63;;;36.53;48.77
74230;BME280;62589;12.568;99.958;2024-03-23T04:41:00;100786.22;;;36.53;48.62
74230;BME280;62589;12.568;99.958;2024-03-23T04:43:27;100777.06;;;36.48;49.33
74230;BME280;62589;12.568;99.958;2024-03-23T04:45:54;100771.03;;;36.54;48.76
74230;BME280;62589;12.568;99.958;2024-03-23T04:48:22;100769.34;;;36.60;49.27
74230;BME280;62589;12.568;99.958;2024-03-23T04:50:49;100775.72;;;36.64;48.98
74230;BME280;62589;12.568;99.958;2024-03-23T04:53:16;100763.75;;;36.60;48.89
74230;BME280;62589;12.568;99.958;2024-03-23T04:55:44;100759.56;;;36.82;49.74
74230;BME280;62589;12.568;99.958;2024-03-23T04:58:10;100755.56;;;36.83;49.26
74230;BME280;62589;12.568;99.958;2024-03-23T05:00:37;100756.66;;;36.93;48.71
74230;BME280;62589;12.568;99.958;2024-03-23T05:03:04;100761.09;;;36.90;48.43
74230;BME280;62589;12.568;99.958;2024-03-23T05:05:31;100746.25;;;36.93;49.87
74230;BME280;62589;12.568;99.958;2024-03-23T05:07:57;100734.72;;;36.88;49.13
74230;BME280;62589;12.568;99.958;2024-03-23T05:10:24;100733.84;;;36.94;49.54
74230;BME280;62589;12.568;99.958;2024-03-23T05:12:51;100717.31;;;36.73;50.27
74230;BME280;62589;12.568;99.958;2024-03-23T05:15:17;100709.59;;;36.84;50.91
74230;BME280;62589;12.568;99.958;2024-03-23T05:17:44;100718.31;;;36.90;51.43
74230;BME280;62589;12.568;99.958;2024-03-23T05:20:11;100722.56;;;36.64;52.16
74230;BME280;62589;12.568;99.958;2024-03-23T05:22:39;100704.41;;;36.45;50.42
74230;BME280;62589;12.568;99.958;2024-03-23T05:25:06;100705.41;;;36.62;50.70
74230;BME280;62589;12.568;99.958;2024-03-23T05:27:33;100712.38;;;36.46;50.01
74230;BME280;62589;12.568;99.958;2024-03-23T05:30:00;100696.31;;;36.13;51.08
74230;BME280;62589;12.568;99.958;2024-03-23T05:32:27;100690.47;;;36.38;51.29
74230;BME280;62589;12.568;99.958;2024-03-23T05:34:54;100700.13;;;36.33;51.28
74230;BME280;62589;12.568;99.958;2024-03-23T05:37:24;100688.34;;;36.53;51.00
74230;BME280;62589;12.568;99.958;2024-03-23T05:39:50;100688.75;;;36.51;52.09
74230;BME280;62589;12.568;99.958;2024-03-23T05:42:18;100684.22;;;36.23;51.35
74230;BME280;62589;12.568;99.958;2024-03-23T05:44:45;100659.78;;;36.34;52.11
74230;BME280;62589;12.568;99.958;2024-03-23T05:47:12;100665.53;;;36.58;50.13
74230;BME280;62589;12.568;99.958;2024-03-23T05:49:43;100667.84;;;36.63;52.55
74230;BME280;62589;12.568;99.958;2024-03-23T05:52:09;100673.53;;;36.56;54.32
74230;BME280;62589;12.568;99.958;2024-03-23T05:54:36;100667.88;;;36.18;55.29
74230;BME280;62589;12.568;99.958;2024-03-23T05:57:03;100668.91;;;36.38;53.42
74230;BME280;62589;12.568;99.958;2024-03-23T05:59:30;100653.50;;;36.20;53.96
74230;BME280;62589;12.568;99.958;2024-03-23T06:01:57;100645.47;;;35.80;57.03
74230;BME280;62589;12.568;99.958;2024-03-23T06:04:23;100661.22;;;36.05;55.70
74230;BME280;62589;12.568;99.958;2024-03-23T06:06:51;100661.28;;;35.98;56.28
74230;BME280;62589;12.568;99.958;2024-03-23T06:09:18;100651.88;;;35.77;56.39
74230;BME280;62589;12.568;99.958;2024-03-23T06:11:48;100659.66;;;36.00;55.52
74230;BME280;62589;12.568;99.958;2024-03-23T06:14:15;100660.56;;;35.90;56.27
74230;BME280;62589;12.568;99.958;2024-03-23T06:16:42;100666.84;;;35.46;56.79
74230;BME280;62589;12.568;99.958;2024-03-23T06:19:08;100641.69;;;35.53;57.25
74230;BME280;62589;12.568;99.958;2024-03-23T06:21:35;100651.31;;;35.45;57.39
74230;BME280;62589;12.568;99.958;2024-03-23T06:24:02;100640.66;;;35.22;58.89
74230;BME280;62589;12.568;99.958;2024-03-23T06:26:29;100630.56;;;35.46;58.63
74230;BME280;62589;12.568;99.958;2024-03-23T06:28:55;100640.41;;;35.61;55.98
74230;BME280;62589;12.568;99.958;2024-03-23T06:31:22;100631.19;;;35.68;56.88
74230;BME280;62589;12.568;99.958;2024-03-23T06:33:49;100625.38;;;35.48;56.98
74230;BME280;62589;12.568;99.958;2024-03-23T06:36:16;100618.63;;;35.38;56.77
74230;BME280;62589;12.568;99.958;2024-03-23T06:38:42;100625.28;;;35.55;56.91
74230;BME280;62589;12.568;99.958;2024-03-23T06:41:09;100625.22;;;35.03;56.94
74230;BME280;62589;12.568;99.958;2024-03-23T06:43:35;100602.03;;;35.13;56.10
74230;BME280;62589;12.568;99.958;2024-03-23T06:46:03;100609.44;;;35.41;55.89
74230;BME280;62589;12.568;99.958;2024-03-23T06:48:30;100588.69;;;35.46;55.16
74230;BME280;62589;12.568;99.958;2024-03-23T06:50:57;100595.13;;;35.36;56.19
74230;BME280;62589;12.568;99.958;2024-03-23T06:53:24;100594.56;;;35.55;56.62
74230;BME280;62589;12.568;99.958;2024-03-23T06:55:54;100592.94;;;35.61;54.58
74230;BME280;62589;12.568;99.958;2024-03-23T06:58:25;100593.53;;;35.35;53.53
74230;BME280;62589;12.568;99.958;2024-03-23T07:00:51;100591.50;;;35.39;54.06
74230;BME280;62589;12.568;99.958;2024-03-23T07:03:18;100575.94;;;35.41;53.96
74230;BME280;62589;12.568;99.958;2024-03-23T07:05:45;100582.97;;;35.60;53.63
74230;BME280;62589;12.568;99.958;2024-03-23T07:08:12;100572.28;;;35.52;54.18
74230;BME280;62589;12.568;99.958;2024-03-23T07:10:42;100565.84;;;35.58;54.92
74230;BME280;62589;12.568;99.958;2024-03-23T07:13:08;100570.13;;;35.70;54.32
74230;BME280;62589;12.568;99.958;2024-03-23T07:15:35;100567.81;;;35.61;54.14
74230;BME280;62589;12.568;99.958;2024-03-23T07:18:02;100567.91;;;35.51;54.66
74230;BME280;62589;12.568;99.958;2024-03-23T07:20:30;100553.06;;;35.57;54.28
74230;BME280;62589;12.568;99.958;2024-03-23T07:22:57;100553.84;;;35.61;54.73
74230;BME280;62589;12.568;99.958;2024-03-23T07:25:24;100544.44;;;35.41;53.77
74230;BME280;62589;12.568;99.958;2024-03-23T07:27:53;100544.66;;;35.61;54.39
74230;BME280;62589;12.568;99.958;2024-03-23T07:30:19;100540.69;;;35.10;55.77
74230;BME280;62589;12.568;99.958;2024-03-23T07:32:46;100533.38;;;35.30;55.78
74230;BME280;62589;12.568;99.958;2024-03-23T07:35:13;100535.13;;;35.06;56.21
74230;BME280;62589;12.568;99.958;2024-03-23T07:37:40;100541.47;;;35.10;56.01
74230;BME280;62589;12.568;99.958;2024-03-23T07:40:07;100531.53;;;35.06;54.95
74230;BME280;62589;12.568;99.958;2024-03-23T07:42:35;100536.16;;;35.30;55.24
74230;BME280;62589;12.568;99.958;2024-03-23T07:45:01;100516.28;;;35.18;55.08
74230;BME280;62589;12.568;99.958;2024-03-23T07:47:28;100512.88;;;34.92;56.30
74230;BME280;62589;12.568;99.958;2024-03-23T07:49:55;100524.25;;;35.19;56.80
74230;BME280;62589;12.568;99.958;2024-03-23T07:52:21;100527.00;;;35.30;55.93
74230;BME280;62589;12.568;99.958;2024-03-23T07:54:48;100516.56;;;35.34;54.11
74230;BME280;62589;12.568;99.958;2024-03-23T07:57:14;100502.28;;;35.25;55.39
74230;BME280;62589;12.568;99.958;2024-03-23T07:59:41;100538.16;;;35.30;56.38
74230;BME280;62589;12.568;99.958;2024-03-23T08:02:08;100511.69;;;35.48;56.07
74230;BME280;62589;12.568;99.958;2024-03-23T08:04:34;100517.84;;;35.22;56.15
74230;BME280;62589;12.568;99.958;2024-03-23T08:07:01;100522.16;;;35.34;56.19
74230;BME280;62589;12.568;99.958;2024-03-23T08:09:28;100517.84;;;35.22;56.35
74230;BME280;62589;12.568;99.958;2024-03-23T08:11:54;100509.47;;;35.29;56.49
74230;BME280;62589;12.568;99.958;2024-03-23T08:14:21;100505.88;;;35.29;56.64
74230;BME280;62589;12.568;99.958;2024-03-23T08:16:47;100515.75;;;35.37;55.74
74230;BME280;62589;12.568;99.958;2024-03-23T08:19:15;100512.25;;;35.26;55.44
74230;BME280;62589;12.568;99.958;2024-03-23T08:21:42;100495.91;;;35.28;55.40
74230;BME280;62589;12.568;99.958;2024-03-23T08:24:09;100495.00;;;35.38;54.88
74230;BME280;62589;12.568;99.958;2024-03-23T08:26:35;100502.94;;;35.43;54.86
74230;BME280;62589;12.568;99.958;2024-03-23T08:29:03;100518.06;;;35.49;54.41
74230;BME280;62589;12.568;99.958;2024-03-23T08:31:31;100496.59;;;35.39;55.15
74230;BME280;62589;12.568;99.958;2024-03-23T08:33:57;100472.97;;;35.02;55.92
74230;BME280;62589;12.568;99.958;2024-03-23T08:36:24;100493.97;;;35.18;56.29
74230;BME280;62589;12.568;99.958;2024-03-23T08:38:51;100495.94;;;35.21;56.12
74230;BME280;62589;12.568;99.958;2024-03-23T08:41:19;100494.22;;;35.37;55.65
74230;BME280;62589;12.568;99.958;2024-03-23T08:43:46;100484.06;;;35.09;56.09
74230;BME280;62589;12.568;99.958;2024-03-23T08:46:14;100484.94;;;34.99;57.20
74230;BME280;62589;12.568;99.958;2024-03-23T08:48:43;100486.63;;;34.86;57.28
74230;BME280;62589;12.568;99.958;2024-03-23T08:51:13;100480.19;;;34.96;56.95
74230;BME280;62589;12.568;99.958;2024-03-23T08:53:40;100493.91;;;35.25;55.77
74230;BME280;62589;12.568;99.958;2024-03-23T08:56:08;100471.25;;;35.15;55.37
74230;BME280;62589;12.568;99.958;2024-03-23T08:58:36;100484.38;;;35.22;55.66
74230;BME280;62589;12.568;99.958;2024-03-23T09:01:05;100488.63;;;35.37;54.94
74230;BME280;62589;12.568;99.958;2024-03-23T09:03:32;100475.31;;;35.07;54.90
74230;BME280;62589;12.568;99.958;2024-03-23T09:06:00;100494.47;;;35.05;54.61
74230;BME280;62589;12.568;99.958;2024-03-23T09:08:27;100487.28;;;35.08;55.12
74230;BME280;62589;12.568;99.958;2024-03-23T09:10:53;100471.78;;;35.00;54.27
74230;BME280;62589;12.568;99.958;2024-03-23T09:13:20;100480.09;;;35.10;54.81
74230;BME280;62589;12.568;99.958;2024-03-23T09:15:51;100484.56;;;34.97;55.04
74230;BME280;62589;12.568;99.958;2024-03-23T09:18:22;100479.16;;;34.69;55.29
74230;BME280;62589;12.568;99.958;2024-03-23T09:20:50;100481.22;;;35.17;54.92
74230;BME280;62589;12.568;99.958;2024-03-23T09:23:17;100505.47;;;35.27;55.38
74230;BME280;62589;12.568;99.958;2024-03-23T09:25:44;100485.13;;;35.30;53.91
74230;BME280;62589;12.568;99.958;2024-03-23T09:28:10;100494.16;;;35.44;52.92
74230;BME280;62589;12.568;99.958;2024-03-23T09:30:37;100478.16;;;35.00;54.23
74230;BME280;62589;12.568;99.958;2024-03-23T09:33:11;100485.66;;;35.10;54.40
74230;BME280;62589;12.568;99.958;2024-03-23T09:35:43;100481.59;;;35.19;54.76
74230;BME280;62589;12.568;99.958;2024-03-23T09:38:13;100478.38;;;35.24;53.98
74230;BME280;62589;12.568;99.958;2024-03-23T09:40:43;100481.69;;;35.08;54.01
74230;BME280;62589;12.568;99.958;2024-03-23T09:43:10;100488.09;;;35.05;54.18
74230;BME280;62589;12.568;99.958;2024-03-23T09:45:40;100499.38;;;34.87;56.41
74230;BME280;62589;12.568;99.958;2024-03-23T09:48:10;100477.88;;;34.77;57.18
74230;BME280;62589;12.568;99.958;2024-03-23T09:50:41;100483.41;;;34.91;56.39
74230;BME280;62589;12.568;99.958;2024-03-23T09:53:10;100479.78;;;34.98;57.10
74230;BME280;62589;12.568;99.958;2024-03-23T09:55:44;100476.97;;;34.98;56.75
74230;BME280;62589;12.568;99.958;2024-03-23T09:58:16;100488.53;;;34.96;55.79
74230;BME280;62589;12.568;99.958;2024-03-23T10:00:44;100502.19;;;34.87;55.24
74230;BME280;62589;12.568;99.958;2024-03-23T10:03:11;100478.38;;;34.65;56.17
74230;BME280;62589;12.568;99.958;2024-03-23T10:05:38;100502.19;;;34.84;55.39
74230;BME280;62589;12.568;99.958;2024-03-23T10:10:41;100495.22;;;34.47;56.50
74230;BME280;62589;12.568;99.958;2024-03-23T10:13:08;100504.28;;;34.62;56.63
74230;BME280;62589;12.568;99.958;2024-03-23T10:15:35;100499.59;;;34.44;57.57
74230;BME280;62589;12.568;99.958;2024-03-23T10:18:19;100506.59;;;34.74;57.01
74230;BME280;62589;12.568;99.958;2024-03-23T10:21:11;100505.78;;;34.73;56.04
74230;BME280;62589;12.568;99.958;2024-03-23T10:23:39;100523.00;;;34.61;56.79
74230;BME280;62589;12.568;99.958;2024-03-23T10:26:23;100516.13;;;34.76;56.23
74230;BME280;62589;12.568;99.958;2024-03-23T10:28:54;100513.03;;;34.64;54.95
74230;BME280;62589;12.568;99.958;2024-03-23T10:31:24;100515.44;;;34.62;55.43
74230;BME280;62589;12.568;99.958;2024-03-23T10:33:51;100520.19;;;34.68;55.89
74230;BME280;62589;12.568;99.958;2024-03-23T10:36:23;100520.59;;;34.67;56.54
74230;BME280;62589;12.568;99.958;2024-03-23T10:38:54;100524.63;;;34.59;55.94
74230;BME280;62589;12.568;99.958;2024-03-23T10:41:21;100531.69;;;34.74;55.48
74230;BME280;62589;12.568;99.958;2024-03-23T10:43:49;100526.19;;;34.63;55.49
74230;BME280;62589;12.568;99.958;2024-03-23T10:46:16;100533.69;;;34.73;55.88
74230;BME280;62589;12.568;99.958;2024-03-23T10:48:44;100528.56;;;34.65;56.29
74230;BME280;62589;12.568;99.958;2024-03-23T10:51:11;100549.28;;;34.64;56.63
74230;BME280;62589;12.568;99.958;2024-03-23T10:53:38;100545.63;;;34.74;56.23
74230;BME280;62589;12.568;99.958;2024-03-23T10:56:06;100541.00;;;34.50;56.78
74230;BME280;62589;12.568;99.958;2024-03-23T10:58:37;100547.78;;;34.49;57.24
74230;BME280;62589;12.568;99.958;2024-03-23T11:01:05;100544.91;;;34.66;56.68
74230;BME280;62589;12.568;99.958;2024-03-23T11:03:36;100540.91;;;34.67;56.03
74230;BME280;62589;12.568;99.958;2024-03-23T11:06:06;100530.19;;;34.59;56.48
74230;BME280;62589;12.568;99.958;2024-03-23T11:08:38;100525.81;;;34.58;56.72
74230;BME280;62589;12.568;99.958;2024-03-23T11:11:18;100545.72;;;34.63;56.40
74230;BME280;62589;12.568;99.958;2024-03-23T11:13:50;100550.53;;;34.52;56.33
74230;BME280;62589;12.568;99.958;2024-03-23T11:16:23;100550.09;;;34.64;56.69
74230;BME280;62589;12.568;99.958;2024-03-23T11:18:51;100565.63;;;34.65;56.80
74230;BME280;62589;12.568;99.958;2024-03-23T11:21:52;100560.78;;;34.73;56.51
74230;BME280;62589;12.568;99.958;2024-03-23T11:24:20;100579.16;;;34.63;56.17
74230;BME280;62589;12.568;99.958;2024-03-23T11:26:47;100575.28;;;34.36;55.48
74230;BME280;62589;12.568;99.958;2024-03-23T11:29:16;100587.16;;;34.51;55.62
74230;BME280;62589;12.568;99.958;2024-03-23T11:31:50;100602.28;;;34.60;55.67
74230;BME280;62589;12.568;99.958;2024-03-23T11:34:18;100603.06;;;34.68;55.33
74230;BME280;62589;12.568;99.958;2024-03-23T11:36:45;100597.47;;;34.68;55.24
74230;BME280;62589;12.568;99.958;2024-03-23T11:39:19;100594.38;;;34.48;55.45
74230;BME280;62589;12.568;99.958;2024-03-23T11:41:54;100604.69;;;34.55;54.92
74230;BME280;62589;12.568;99.958;2024-03-23T11:44:22;100599.97;;;34.37;54.98
74230;BME280;62589;12.568;99.958;2024-03-23T11:46:50;100610.72;;;34.35;55.25
74230;BME280;62589;12.568;99.958;2024-03-23T11:49:27;100620.28;;;34.31;55.44
74230;BME280;62589;12.568;99.958;2024-03-23T11:51:55;100611.94;;;34.13;55.46
74230;BME280;62589;12.568;99.958;2024-03-23T11:54:26;100619.47;;;34.34;55.21
74230;BME280;62589;12.568;99.958;2024-03-23T11:57:04;100618.66;;;34.44;54.98
74230;BME280;62589;12.568;99.958;2024-03-23T11:59:39;100628.63;;;34.49;55.22
74230;BME280;62589;12.568;99.958;2024-03-23T12:02:11;100638.16;;;34.51;55.07
74230;BME280;62589;12.568;99.958;2024-03-23T12:04:41;100646.88;;;34.60;54.85
74230;BME280;62589;12.568;99.958;2024-03-23T12:09:38;100651.66;;;34.70;54.62
74230;BME280;62589;12.568;99.958;2024-03-23T12:12:10;100658.81;;;34.68;54.71
74230;BME280;62589;12.568;99.958;2024-03-23T12:14:37;100661.63;;;34.61;54.89
74230;BME280;62589;12.568;99.958;2024-03-23T12:17:11;100654.84;;;34.65;54.38
74230;BME280;62589;12.568;99.958;2024-03-23T12:19:39;100648.84;;;34.70;54.64
74230;BME280;62589;12.568;99.958;2024-03-23T12:22:06;100648.06;;;34.70;54.62
74230;BME280;62589;12.568;99.958;2024-03-23T12:24:33;100658.84;;;34.64;54.81
74230;BME280;62589;12.568;99.958;2024-03-23T12:27:06;100656.84;;;34.68;55.03
74230;BME280;62589;12.568;99.958;2024-03-23T12:29:32;100642.56;;;34.41;55.44
74230;BME280;62589;12.568;99.958;2024-03-23T12:32:02;100642.97;;;34.47;55.37
74230;BME280;62589;12.568;99.958;2024-03-23T12:34:29;100654.50;;;34.38;55.96
74230;BME280;62589;12.568;99.958;2024-03-23T12:36:59;100648.94;;;34.45;55.69
74230;BME280;62589;12.568;99.958;2024-03-23T12:39:26;100650.91;;;34.49;55.47
74230;BME280;62589;12.568;99.958;2024-03-23T12:41:53;100647.34;;;34.44;55.21
74230;BME280;62589;12.568;99.958;2024-03-23T12:44:19;100655.25;;;34.57;55.10
74230;BME280;62589;12.568;99.958;2024-03-23T12:46:47;100664.41;;;34.61;55.08
74230;BME280;62589;12.568;99.958;2024-03-23T12:49:13;100662.44;;;34.58;55.35
74230;BME280;62589;12.568;99.958;2024-03-23T12:51:48;100672.78;;;34.61;55.45
74230;BME280;62589;12.568;99.958;2024-03-23T12:54:20;100670.78;;;34.61;54.96
74230;BME280;62589;12.568;99.958;2024-03-23T12:56:46;100668.41;;;34.60;55.51
74230;BME280;62589;12.568;99.958;2024-03-23T12:59:13;100670.03;;;34.36;56.51
74230;BME280;62589;12.568;99.958;2024-03-23T13:01:40;100670.84;;;34.33;56.57
74230;BME280;62589;12.568;99.958;2024-03-23T13:04:07;100677.22;;;34.47;56.50
74230;BME280;62589;12.568;99.958;2024-03-23T13:06:34;100679.16;;;34.51;56.10
74230;BME280;62589;12.568;99.958;2024-03-23T13:09:04;100679.56;;;34.53;56.65
74230;BME280;62589;12.568;99.958;2024-03-23T13:11:31;100695.53;;;34.49;56.75
74230;BME280;62589;12.568;99.958;2024-03-23T13:13:58;100697.13;;;34.35;58.58
74230;BME280;62589;12.568;99.958;2024-03-23T13:16:24;100690.75;;;34.35;59.00
74230;BME280;62589;12.568;99.958;2024-03-23T13:18:51;100697.91;;;34.43;59.06
74230;BME280;62589;12.568;99.958;2024-03-23T13:21:18;100706.69;;;34.49;59.64
74230;BME280;62589;12.568;99.958;2024-03-23T13:23:48;100712.25;;;34.45;59.96
74230;BME280;62589;12.568;99.958;2024-03-23T13:26:16;100721.81;;;34.44;60.20
74230;BME280;62589;12.568;99.958;2024-03-23T13:28:42;100733.72;;;34.55;59.43
74230;BME280;62589;12.568;99.958;2024-03-23T13:31:10;100730.16;;;34.51;59.46
74230;BME280;62589;12.568;99.958;2024-03-23T13:33:37;100720.97;;;34.51;59.21
74230;BME280;62589;12.568;99.958;2024-03-23T13:36:04;100725.38;;;34.55;59.19
74230;BME280;62589;12.568;99.958;2024-03-23T13:38:30;100746.88;;;34.51;59.13
74230;BME280;62589;12.568;99.958;2024-03-23T13:40:58;100749.25;;;34.60;58.91